createdAt,value
2019-01-20T00:03:15.058Z,96.70
2019-01-20T00:05:44.618Z,96.70
2019-01-20T00:08:14.174Z,96.70
2019-01-20T00:10:43.600Z,96.80
2019-01-20T00:13:13.331Z,96.50
2019-01-20T00:15:44.565Z,96.40
2019-01-20T00:18:14.429Z,96.60
2019-01-20T00:20:44.192Z,96.30
2019-01-20T00:23:14.200Z,96.20
2019-01-20T00:25:43.649Z,96.30
2019-01-20T00:28:13.170Z,96.70
2019-01-20T00:30:42.913Z,96.20
2019-01-20T00:33:12.400Z,95.90
2019-01-20T00:35:41.816Z,95.90
2019-01-20T00:38:11.257Z,96.30
2019-01-20T00:40:40.704Z,96.30
2019-01-20T00:43:10.457Z,96.30
2019-01-20T00:45:40.476Z,96.20
2019-01-20T00:48:10.308Z,96.20
2019-01-20T00:50:39.723Z,96.20
2019-01-20T00:53:09.166Z,96.30
2019-01-20T00:55:39.224Z,96.30
2019-01-20T00:58:08.714Z,96.20
2019-01-20T01:00:38.335Z,96.20
2019-01-20T01:03:09.091Z,96.40
2019-01-20T01:05:39.112Z,96.40
2019-01-20T01:08:10.284Z,96.40
2019-01-20T01:10:40.540Z,96.50
2019-01-20T01:13:10.530Z,96.60
2019-01-20T01:15:40.399Z,96.60
2019-01-20T01:18:09.875Z,96.50
2019-01-20T01:20:39.573Z,96.50
2019-01-20T01:23:09.095Z,96.40
2019-01-20T01:25:38.620Z,96.30
2019-01-20T01:28:08.137Z,96.40
2019-01-20T01:30:39.049Z,96.30
2019-01-20T01:33:08.571Z,96.30
2019-01-20T01:35:38.578Z,96.30
2019-01-20T01:38:08.039Z,96.90
2019-01-20T01:40:37.493Z,96.50
2019-01-20T01:43:06.933Z,96.70
2019-01-20T01:45:36.448Z,96.80
2019-01-20T01:48:06.008Z,96.70
2019-01-20T01:50:35.450Z,96.70
2019-01-20T01:53:05.037Z,96.70
2019-01-20T01:55:34.487Z,96.80
2019-01-20T01:58:04.620Z,96.80
2019-01-20T02:00:36.074Z,96.40
2019-01-20T02:03:05.946Z,96.40
2019-01-20T02:05:35.925Z,96.30
2019-01-20T02:08:05.887Z,96.30
2019-01-20T02:10:35.369Z,96.60
2019-01-20T02:13:05.155Z,96.50
2019-01-20T02:15:34.748Z,96.80
2019-01-20T02:18:04.528Z,96.80
2019-01-20T02:20:34.009Z,96.90
2019-01-20T02:23:03.688Z,96.70
2019-01-20T02:25:33.125Z,97.00
2019-01-20T02:28:03.121Z,96.90
2019-01-20T02:30:32.718Z,96.70
2019-01-20T02:33:02.352Z,97.20
2019-01-20T02:35:33.116Z,96.80
2019-01-20T02:38:02.635Z,96.80
2019-01-20T02:40:32.131Z,96.50
2019-01-20T02:43:02.832Z,96.50
2019-01-20T02:45:32.207Z,96.60
2019-01-20T02:48:01.627Z,96.60
2019-01-20T02:50:31.125Z,96.60
2019-01-20T02:53:00.510Z,96.60
2019-01-20T02:55:29.933Z,96.70
2019-01-20T02:57:59.645Z,96.60
2019-01-20T03:00:29.518Z,96.60
2019-01-20T03:02:59.016Z,96.50
2019-01-20T03:05:28.584Z,96.70
2019-01-20T03:07:58.108Z,96.80
2019-01-20T03:10:27.463Z,96.80
2019-01-20T03:12:57.041Z,96.80
2019-01-20T03:15:26.570Z,96.70
2019-01-20T03:17:56.771Z,96.90
2019-01-20T03:20:26.305Z,96.70
2019-01-20T03:22:55.765Z,96.60
2019-01-20T03:25:25.332Z,96.60
2019-01-20T03:27:55.524Z,97.10
2019-01-20T03:30:25.628Z,96.80
2019-01-20T03:32:55.524Z,96.80
2019-01-20T03:35:26.152Z,96.70
2019-01-20T03:37:56.112Z,96.40
2019-01-20T03:40:25.536Z,96.50
2019-01-20T03:42:56.269Z,96.40
2019-01-20T03:45:25.768Z,96.30
2019-01-20T03:47:55.292Z,96.30
2019-01-20T03:50:25.236Z,96.50
2019-01-20T03:52:54.599Z,96.50
2019-01-20T03:55:24.112Z,96.60
2019-01-20T03:57:53.580Z,96.70
2019-01-20T04:00:24.275Z,96.90
2019-01-20T04:02:55.486Z,96.90
2019-01-20T04:05:25.945Z,96.90
2019-01-20T04:07:55.370Z,97.10
2019-01-20T04:10:24.883Z,97.30
2019-01-20T04:12:54.784Z,97.20
2019-01-20T04:15:24.270Z,97.30
2019-01-20T04:17:56.106Z,97.00
2019-01-20T04:20:25.670Z,97.10
2019-01-20T04:22:55.122Z,97.50
2019-01-20T04:25:25.217Z,97.00
2019-01-20T04:27:54.655Z,97.00
2019-01-20T04:30:33.164Z,97.10
2019-01-20T04:33:02.589Z,97.30
2019-01-20T04:35:32.180Z,96.70
2019-01-20T04:38:01.686Z,96.60
2019-01-20T04:40:31.195Z,96.60
2019-01-20T04:43:02.650Z,96.70
2019-01-20T04:45:31.789Z,96.60
2019-01-20T04:48:01.220Z,97.00
2019-01-20T04:50:31.258Z,96.60
2019-01-20T04:53:00.718Z,96.70
2019-01-20T04:55:30.145Z,96.60
2019-01-20T04:57:59.688Z,96.50
2019-01-20T05:00:29.076Z,96.50
2019-01-20T05:02:58.503Z,96.40
2019-01-20T05:05:27.964Z,96.50
2019-01-20T05:07:57.473Z,96.70
2019-01-20T05:10:26.900Z,96.70
2019-01-20T05:12:56.352Z,96.80
2019-01-20T05:15:26.359Z,97.00
2019-01-20T05:17:55.858Z,96.80
2019-01-20T05:20:25.380Z,96.60
2019-01-20T05:22:54.789Z,96.30
2019-01-20T05:25:24.930Z,96.20
2019-01-20T05:27:54.431Z,96.10
2019-01-20T05:30:24.836Z,96.30
2019-01-20T05:32:54.663Z,96.40
2019-01-20T05:35:24.222Z,96.40
2019-01-20T05:37:53.734Z,96.50
2019-01-20T05:40:23.501Z,96.50
2019-01-20T05:42:52.933Z,96.50
2019-01-20T05:45:24.160Z,96.50
2019-01-20T05:47:54.465Z,96.80
2019-01-20T05:50:23.918Z,96.70
2019-01-20T05:52:54.331Z,96.80
2019-01-20T05:55:24.225Z,97.00
2019-01-20T05:57:53.606Z,97.20
2019-01-20T06:00:28.613Z,97.30
2019-01-20T06:02:58.151Z,96.70
2019-01-20T06:05:28.365Z,96.60
2019-01-20T06:07:58.281Z,96.60
2019-01-20T06:10:28.182Z,96.40
2019-01-20T06:12:57.721Z,96.20
2019-01-20T06:15:27.715Z,96.20
2019-01-20T06:17:57.138Z,96.00
2019-01-20T06:20:29.120Z,96.10
2019-01-20T06:22:58.555Z,96.30
2019-01-20T06:25:28.274Z,96.10
2019-01-20T06:27:57.665Z,96.00
2019-01-20T06:30:30.130Z,96.00
2019-01-20T06:33:00.042Z,96.00
2019-01-20T06:35:29.945Z,96.00
2019-01-20T06:38:00.188Z,96.10
2019-01-20T06:40:29.702Z,96.20
2019-01-20T06:43:02.127Z,96.20
2019-01-20T06:45:30.192Z,96.30
2019-01-20T06:47:59.646Z,96.50
2019-01-20T06:50:30.028Z,96.50
2019-01-20T06:52:59.468Z,96.20
2019-01-20T06:55:28.976Z,96.30
2019-01-20T06:57:59.035Z,96.30
2019-01-20T07:00:28.952Z,96.50
2019-01-20T07:03:00.754Z,96.50
2019-01-20T07:05:30.264Z,96.50
2019-01-20T07:07:59.696Z,96.50
2019-01-20T07:10:29.377Z,96.40
2019-01-20T07:12:59.391Z,96.30
2019-01-20T07:15:29.230Z,96.00
2019-01-20T07:17:58.613Z,96.00
2019-01-20T07:20:28.197Z,95.90
2019-01-20T07:22:57.624Z,96.00
2019-01-20T07:25:27.000Z,96.20
2019-01-20T07:27:56.425Z,96.50
2019-01-20T07:30:25.917Z,96.40
2019-01-20T07:33:01.300Z,96.30
2019-01-20T07:35:30.793Z,96.10
2019-01-20T07:38:00.453Z,96.50
2019-01-20T07:40:30.031Z,96.40
2019-01-20T07:42:59.520Z,96.10
2019-01-20T07:45:29.031Z,96.20
2019-01-20T07:47:58.606Z,96.20
2019-01-20T07:50:28.230Z,96.30
2019-01-20T07:52:57.842Z,96.60
2019-01-20T07:55:27.208Z,96.70
2019-01-20T07:57:56.884Z,97.00
2019-01-20T08:00:26.496Z,96.90
2019-01-20T08:02:56.007Z,97.00
2019-01-20T08:05:25.505Z,97.30
2019-01-20T08:07:55.386Z,96.90
2019-01-20T08:10:26.879Z,96.90
2019-01-20T08:12:56.568Z,96.90
2019-01-20T08:15:26.075Z,96.90
2019-01-20T08:17:55.733Z,97.20
2019-01-20T08:20:25.802Z,97.20
2019-01-20T08:22:58.307Z,97.20
2019-01-20T08:25:27.663Z,97.30
2019-01-20T08:27:57.236Z,97.30
2019-01-20T08:30:28.065Z,97.30
2019-01-20T08:32:57.571Z,97.30
2019-01-20T08:35:27.432Z,97.40
2019-01-20T08:37:56.924Z,97.60
2019-01-20T08:40:28.654Z,97.60
2019-01-20T08:42:58.221Z,97.30
2019-01-20T08:45:49.413Z,97.40
2019-01-20T08:48:22.152Z,97.40
2019-01-20T08:50:52.041Z,97.40
2019-01-20T08:53:21.500Z,97.40
2019-01-20T08:55:50.932Z,97.30
2019-01-20T09:01:10.866Z,97.30
2019-01-20T09:03:40.275Z,97.50
2019-01-20T09:06:09.628Z,97.50
2019-01-20T09:08:43.872Z,97.40
2019-01-20T09:11:13.370Z,97.40
2019-01-20T09:13:42.804Z,97.30
2019-01-20T09:16:12.337Z,97.40
2019-01-20T09:18:41.772Z,97.20
2019-01-20T09:21:11.329Z,97.30
2019-01-20T09:23:40.720Z,97.20
2019-01-20T09:26:10.086Z,96.90
2019-01-20T09:28:39.468Z,96.90
2019-01-20T09:31:08.936Z,97.00
2019-01-20T09:33:38.360Z,97.00
2019-01-20T09:36:07.883Z,97.10
2019-01-20T09:38:37.400Z,97.00
2019-01-20T09:41:06.845Z,97.00
2019-01-20T09:43:36.837Z,96.90
2019-01-20T09:46:06.663Z,97.40
2019-01-20T09:48:37.783Z,97.30
2019-01-20T09:51:07.464Z,97.00
2019-01-20T09:53:37.347Z,96.60
2019-01-20T09:56:06.875Z,96.70
2019-01-20T09:58:36.576Z,97.10
2019-01-20T10:01:06.493Z,96.30
2019-01-20T10:03:36.048Z,96.80
2019-01-20T10:06:05.568Z,96.90
2019-01-20T10:08:34.987Z,96.90
2019-01-20T10:11:04.649Z,97.00
2019-01-20T10:13:34.166Z,96.60
2019-01-20T10:16:03.591Z,96.50
2019-01-20T10:18:33.387Z,96.30
2019-01-20T10:21:03.537Z,96.20
2019-01-20T10:23:33.207Z,95.80
2019-01-20T10:26:02.607Z,96.00
2019-01-20T10:28:32.042Z,96.00
2019-01-20T10:31:01.970Z,96.00
2019-01-20T10:33:31.472Z,95.60
2019-01-20T10:36:02.243Z,96.10
2019-01-20T10:38:31.683Z,96.70
2019-01-20T10:41:01.311Z,96.60
2019-01-20T10:43:31.884Z,96.40
2019-01-20T10:46:01.381Z,96.60
2019-01-20T10:48:31.107Z,96.30
2019-01-20T10:51:01.133Z,96.50
2019-01-20T10:53:31.131Z,96.60
2019-01-20T10:56:02.000Z,97.00
2019-01-20T10:58:31.948Z,97.00
2019-01-20T11:01:02.147Z,97.40
2019-01-20T11:03:32.108Z,97.00
2019-01-20T11:06:01.597Z,96.60
2019-01-20T11:08:31.655Z,97.00
2019-01-20T11:11:01.546Z,97.00
2019-01-20T11:13:31.031Z,96.90
2019-01-20T11:16:00.471Z,96.70
2019-01-20T11:18:29.998Z,96.80
2019-01-20T11:20:59.947Z,96.80
2019-01-20T11:23:30.349Z,96.70
2019-01-20T11:25:59.801Z,96.60
2019-01-20T11:28:29.232Z,96.60
2019-01-20T11:30:58.676Z,96.60
2019-01-20T11:33:28.058Z,96.50
2019-01-20T11:35:57.851Z,96.40
2019-01-20T11:38:27.315Z,96.20
2019-01-20T11:40:56.869Z,96.40
2019-01-20T11:43:26.990Z,96.20
2019-01-20T11:45:56.363Z,96.30
2019-01-20T11:48:25.895Z,95.70
2019-01-20T11:50:55.251Z,96.10
2019-01-20T11:53:24.666Z,95.80
2019-01-20T11:55:54.178Z,95.70
2019-01-20T11:58:23.529Z,95.50
2019-01-20T12:00:53.079Z,95.20
2019-01-20T12:03:22.519Z,95.10
2019-01-20T12:05:51.872Z,95.20
2019-01-20T12:08:21.207Z,95.40
2019-01-20T12:10:50.654Z,95.50
2019-01-20T12:13:20.380Z,95.00
2019-01-20T12:15:50.235Z,95.20
2019-01-20T12:18:19.755Z,95.20
2019-01-20T12:20:50.124Z,95.20
2019-01-20T12:23:21.605Z,95.10
2019-01-20T12:25:51.467Z,95.20
2019-01-20T12:28:21.571Z,94.20
2019-01-20T12:30:51.431Z,94.30
2019-01-20T12:33:20.840Z,94.20
2019-01-20T12:35:50.296Z,93.70
2019-01-20T12:38:19.978Z,93.70
2019-01-20T12:40:49.388Z,93.10
2019-01-20T12:43:18.887Z,93.20
2019-01-20T12:45:48.255Z,93.00
2019-01-20T12:48:17.849Z,92.70
2019-01-20T12:50:47.364Z,93.00
2019-01-20T12:53:16.802Z,92.60
2019-01-20T12:55:46.144Z,91.80
2019-01-20T12:58:16.111Z,91.10
2019-01-20T13:00:45.483Z,90.20
2019-01-20T13:03:14.824Z,90.30
2019-01-20T13:05:44.721Z,89.70
2019-01-20T13:08:14.234Z,89.50
2019-01-20T13:10:43.654Z,90.40
2019-01-20T13:13:13.109Z,90.10
2019-01-20T13:15:42.535Z,90.10
2019-01-20T13:18:11.871Z,89.70
2019-01-20T13:20:41.529Z,89.80
2019-01-20T13:23:11.530Z,89.60
2019-01-20T13:25:40.888Z,89.90
2019-01-20T13:28:10.666Z,90.10
2019-01-20T13:30:40.047Z,90.00
2019-01-20T13:33:09.446Z,90.30
2019-01-20T13:35:38.809Z,90.60
2019-01-20T13:38:10.596Z,90.80
2019-01-20T13:40:43.327Z,90.90
2019-01-20T13:43:12.755Z,91.20
2019-01-20T13:45:42.559Z,91.40
2019-01-20T13:48:12.760Z,91.30
2019-01-20T13:50:42.331Z,90.80
2019-01-20T13:53:11.732Z,90.80
2019-01-20T13:55:41.086Z,91.00
2019-01-20T13:58:11.429Z,90.70
2019-01-20T14:00:41.000Z,91.10
2019-01-20T14:03:10.490Z,91.50
2019-01-20T14:05:40.254Z,92.00
2019-01-20T14:08:10.179Z,91.70
2019-01-20T14:10:40.096Z,91.80
2019-01-20T14:13:10.003Z,92.20
2019-01-20T14:15:39.474Z,92.10
2019-01-20T14:18:08.976Z,91.90
2019-01-20T14:20:38.776Z,92.10
2019-01-20T14:23:08.400Z,92.20
2019-01-20T14:25:37.753Z,92.20
2019-01-20T14:28:07.182Z,92.40
2019-01-20T14:30:36.525Z,92.40
2019-01-20T14:33:06.452Z,92.30
2019-01-20T14:35:35.803Z,92.20
2019-01-20T14:38:05.182Z,91.90
2019-01-20T14:40:35.429Z,90.90
2019-01-20T14:43:05.167Z,89.80
2019-01-20T14:45:34.568Z,88.80
2019-01-20T14:48:04.570Z,89.40
2019-01-20T14:50:34.438Z,89.10
2019-01-20T14:53:03.842Z,88.90
2019-01-20T14:55:33.195Z,88.40
2019-01-20T14:58:02.565Z,89.20
2019-01-20T15:00:37.282Z,88.10
2019-01-20T15:03:07.584Z,89.60
2019-01-20T15:05:36.987Z,90.20
2019-01-20T15:08:07.293Z,90.10
2019-01-20T15:10:36.790Z,90.20
2019-01-20T15:13:06.368Z,90.50
2019-01-20T15:15:38.837Z,90.80
2019-01-20T15:18:09.690Z,90.00
2019-01-20T15:20:39.554Z,90.10
2019-01-20T15:23:09.682Z,89.20
2019-01-20T15:25:39.687Z,88.70
2019-01-20T15:28:09.822Z,89.20
2019-01-20T15:30:39.666Z,90.20
2019-01-20T15:33:09.005Z,90.20
2019-01-20T15:35:38.563Z,85.70
2019-01-20T15:38:08.590Z,86.60
2019-01-20T15:40:38.107Z,86.00
2019-01-20T15:43:08.364Z,86.80
2019-01-20T15:45:37.786Z,86.70
2019-01-20T15:48:08.094Z,87.70
2019-01-20T15:50:37.714Z,87.90
2019-01-20T15:53:07.230Z,88.10
2019-01-20T15:55:36.630Z,89.30
2019-01-20T15:58:06.067Z,89.40
2019-01-20T16:00:35.800Z,90.50
2019-01-20T16:03:05.934Z,90.30
2019-01-20T16:05:35.789Z,90.40
2019-01-20T16:08:05.841Z,90.70
2019-01-20T16:10:35.641Z,91.00
2019-01-20T16:13:05.086Z,91.30
2019-01-20T16:15:35.217Z,91.40
2019-01-20T16:18:05.147Z,91.50
2019-01-20T16:20:35.272Z,91.70
2019-01-20T16:23:05.683Z,91.80
2019-01-20T16:25:35.410Z,91.60
2019-01-20T16:28:06.261Z,91.70
2019-01-20T16:30:37.611Z,91.80
2019-01-20T16:33:07.249Z,92.00
2019-01-20T16:35:37.218Z,92.10
2019-01-20T16:38:06.661Z,92.20
2019-01-20T16:40:36.476Z,92.20
2019-01-20T16:43:06.651Z,92.50
2019-01-20T16:45:42.608Z,92.60
2019-01-20T16:48:12.283Z,92.40
2019-01-20T16:50:42.259Z,92.00
2019-01-20T16:53:13.125Z,92.40
2019-01-20T16:55:42.671Z,92.50
2019-01-20T16:58:12.132Z,92.80
2019-01-20T17:00:42.116Z,92.30
2019-01-20T17:03:11.606Z,91.60
2019-01-20T17:05:41.673Z,91.20
2019-01-20T17:08:11.176Z,91.10
2019-01-20T17:10:40.718Z,91.10
2019-01-20T17:13:10.190Z,90.70
2019-01-20T17:15:42.022Z,90.60
2019-01-20T17:18:12.762Z,90.40
2019-01-20T17:20:42.170Z,90.10
2019-01-20T17:23:11.604Z,90.00
2019-01-20T17:25:40.935Z,90.00
2019-01-20T17:28:10.263Z,89.20
2019-01-20T17:30:40.659Z,89.00
2019-01-20T17:33:10.930Z,88.60
2019-01-20T17:35:40.395Z,88.80
2019-01-20T17:38:10.496Z,88.20
2019-01-20T17:40:40.463Z,88.10
2019-01-20T17:43:09.949Z,89.10
2019-01-20T17:45:48.350Z,90.30
2019-01-20T17:48:12.723Z,90.90
2019-01-20T17:50:42.501Z,91.50
2019-01-20T17:53:12.406Z,92.10
2019-01-20T17:55:41.817Z,92.40
2019-01-20T17:58:11.358Z,92.50
2019-01-20T18:00:42.490Z,93.10
2019-01-20T18:03:13.043Z,92.80
2019-01-20T18:05:42.472Z,92.90
2019-01-20T18:08:11.975Z,93.10
2019-01-20T18:10:41.830Z,93.40
2019-01-20T18:13:12.274Z,93.50
2019-01-20T18:15:41.787Z,93.60
2019-01-20T18:18:11.358Z,93.40
2019-01-20T18:20:40.716Z,94.20
2019-01-20T18:23:10.878Z,94.40
2019-01-20T18:25:40.601Z,94.50
2019-01-20T18:28:10.425Z,94.70
2019-01-20T18:30:39.867Z,94.90
2019-01-20T18:33:09.273Z,95.20
2019-01-20T18:35:38.750Z,95.70
2019-01-20T18:38:08.428Z,95.30
2019-01-20T18:40:37.895Z,95.30
2019-01-20T18:43:07.260Z,95.50
2019-01-20T18:45:38.607Z,95.40
2019-01-20T18:48:09.095Z,95.30
2019-01-20T18:50:39.204Z,95.30
2019-01-20T18:53:09.270Z,95.30
2019-01-20T18:55:38.690Z,95.30
2019-01-20T18:58:08.520Z,95.50
2019-01-20T19:00:44.211Z,95.50
2019-01-20T19:03:13.756Z,95.60
2019-01-20T19:05:43.290Z,95.60
2019-01-20T19:08:13.295Z,95.70
2019-01-20T19:10:43.275Z,95.80
2019-01-20T19:13:13.481Z,95.90
2019-01-20T19:15:43.231Z,96.10
2019-01-20T19:18:18.872Z,96.10
2019-01-20T19:20:44.061Z,96.10
2019-01-20T19:23:13.544Z,96.40
2019-01-20T19:25:43.047Z,96.30
2019-01-20T19:28:12.381Z,96.10
2019-01-20T19:30:41.876Z,96.00
2019-01-20T19:33:11.377Z,96.10
2019-01-20T19:35:41.056Z,96.30
2019-01-20T19:38:10.595Z,96.70
2019-01-20T19:40:39.954Z,96.80
2019-01-20T19:43:09.838Z,96.60
2019-01-20T19:45:40.130Z,96.60
2019-01-20T19:48:13.135Z,96.60
2019-01-20T19:50:40.806Z,96.80
2019-01-20T19:53:10.227Z,96.80
2019-01-20T19:55:39.662Z,96.70
2019-01-20T19:58:09.618Z,96.60
2019-01-20T20:00:39.971Z,96.60
2019-01-20T20:03:09.607Z,96.60
2019-01-20T20:05:39.102Z,96.70
2019-01-20T20:08:09.072Z,96.80
2019-01-20T20:10:38.498Z,96.60
2019-01-20T20:13:07.987Z,96.50
2019-01-20T20:15:38.063Z,96.60
2019-01-20T20:18:07.692Z,96.60
2019-01-20T20:20:37.726Z,96.40
2019-01-20T20:23:07.956Z,96.50
2019-01-20T20:25:37.449Z,96.60
2019-01-20T20:28:06.950Z,96.70
2019-01-20T20:30:36.459Z,96.30
2019-01-20T20:33:06.360Z,96.30
2019-01-20T20:35:36.404Z,96.20
2019-01-20T20:38:06.068Z,96.30
2019-01-20T20:40:35.889Z,96.00
2019-01-20T20:43:05.296Z,96.00
2019-01-20T20:45:34.917Z,96.00
2019-01-20T20:48:04.462Z,95.90
2019-01-20T20:50:33.867Z,95.90
2019-01-20T20:53:03.307Z,95.60
2019-01-20T20:55:32.649Z,95.60
2019-01-20T20:58:02.120Z,95.50
2019-01-20T21:00:37.422Z,95.80
2019-01-20T21:03:09.799Z,95.60
2019-01-20T21:05:39.732Z,95.80
2019-01-20T21:08:09.538Z,95.90
2019-01-20T21:10:38.900Z,96.00
2019-01-20T21:13:08.443Z,96.20
2019-01-20T21:15:38.385Z,96.10
2019-01-20T21:18:08.939Z,96.40
2019-01-20T21:20:38.276Z,96.60
2019-01-20T21:23:12.119Z,96.80
2019-01-20T21:25:38.903Z,96.80
2019-01-20T21:28:08.308Z,96.90
2019-01-20T21:30:39.136Z,96.90
2019-01-20T21:33:08.748Z,96.70
2019-01-20T21:35:38.239Z,96.80
2019-01-20T21:38:07.666Z,96.70
2019-01-20T21:40:37.188Z,96.80
2019-01-20T21:43:06.548Z,97.00
2019-01-20T21:45:36.097Z,97.00
2019-01-20T21:48:05.881Z,97.20
2019-01-20T21:50:35.359Z,97.30
2019-01-20T21:53:05.382Z,97.40
2019-01-20T21:55:35.319Z,98.00
2019-01-20T21:58:04.908Z,98.00
2019-01-20T22:00:34.774Z,97.80
2019-01-20T22:03:04.340Z,97.60
2019-01-20T22:05:33.747Z,97.40
2019-01-20T22:08:03.225Z,97.40
2019-01-20T22:10:32.596Z,97.30
2019-01-20T22:13:02.496Z,97.30
2019-01-20T22:15:31.829Z,97.30
2019-01-20T22:18:03.168Z,97.40
2019-01-20T22:20:33.199Z,97.90
2019-01-20T22:23:02.740Z,97.60
2019-01-20T22:25:32.292Z,97.60
2019-01-20T22:28:01.661Z,97.70
2019-01-20T22:30:31.687Z,97.70
2019-01-20T22:33:01.023Z,97.60
2019-01-20T22:35:30.378Z,97.50
2019-01-20T22:38:00.234Z,97.30
2019-01-20T22:40:30.012Z,97.30
2019-01-20T22:42:59.713Z,97.50
2019-01-20T22:45:29.210Z,97.60
2019-01-20T22:47:58.595Z,96.90
2019-01-20T22:50:28.389Z,96.80
2019-01-20T22:52:57.891Z,97.00
2019-01-20T22:55:27.230Z,97.10
2019-01-20T22:57:56.698Z,97.10
2019-01-20T23:00:39.622Z,97.10
2019-01-20T23:03:09.778Z,96.80
2019-01-20T23:05:39.130Z,96.90
2019-01-20T23:08:09.642Z,96.60
2019-01-20T23:10:39.047Z,96.50
2019-01-20T23:13:08.563Z,96.60
2019-01-20T23:15:38.063Z,96.60
2019-01-20T23:18:07.480Z,96.40
2019-01-20T23:20:36.885Z,96.10
2019-01-20T23:23:06.504Z,96.10
2019-01-20T23:25:35.904Z,96.30
2019-01-20T23:28:05.379Z,96.50
2019-01-20T23:30:34.882Z,96.40
2019-01-20T23:33:04.394Z,96.60
2019-01-20T23:35:33.862Z,96.50
2019-01-20T23:38:03.331Z,97.10
2019-01-20T23:40:33.111Z,96.70
2019-01-20T23:43:03.223Z,96.50
2019-01-20T23:45:32.652Z,96.70
2019-01-20T23:48:01.996Z,96.50
2019-01-20T23:50:31.342Z,96.80
2019-01-20T23:53:00.754Z,97.00
2019-01-20T23:55:30.194Z,97.10
2019-01-20T23:57:59.683Z,96.90
